Danville, IL

4:24 PM CST on December 22, 2014 (GMT -0600)
Clary Farm | Change Station
CLOSE
Current Station
Personal Weather Station
Location: Danville, IL
Elevation: 627 ft
Nearby Weather Stations
Active Advisory: Special Statement

Elev 627 ft 40.15 °N, 87.58 °W | Updated 13 seconds ago

Rain
Rain
43.5 °F
Feels Like 44 °F
N
2.0
Wind Variable Wind from ESE
Gusts 9.0 mph

Today
High -- | Low -- °F
--% Chance of Precip.
Yesterday
High -- | Low -- °F
Precip. -- in
7:09 AM 4:28 PM
New Moon, 1% visible
Pressure 29.65 in
Visibility 5.0 miles
Clouds Mostly Cloudy 2100 ft
Mostly Cloudy 3800 ft
Overcast 4500 ft
Windchill 44 °F
Dew Point 42 °F
Humidity 94%
Rainfall 0.15 in
Snow Depth Not available.
UV 0 out of 12
Pollen .10 out of 12
Air Quality Not available.
Flu Activity Not available.
METAR KDNV 222215Z AUTO 12009KT 5SM -RA BKN021 BKN038 OVC045 06/05 A2965 RMK AO2 T00550046

More Conditions Fewer Conditions

Pressure 29.65 in
Visibility 5.0 miles
Clouds Mostly Cloudy 2100 ft
Mostly Cloudy 3800 ft
Overcast 4500 ft
Windchill 44 °F
Dew Point 42 °F
Humidity 94%
Rainfall 0.15 in
Snow Depth Not available.
UV 0 out of 12
Pollen .10 out of 12
Air Quality Not available.
Flu Activity Not available.
METAR KDNV 222215Z AUTO 12009KT 5SM -RA BKN021 BKN038 OVC045 06/05 A2965 RMK AO2 T00550046

More Conditions Fewer Conditions

10-Day Weather Forecast

Almanac

Astronomy

Dec. 22, 2014 Rise Set
Actual Time
Civil Twilight
Nautical Twilight
Astronomical Twilight
Moon
Length of Visible Light
Length of Day
Tomorrow will be .
, % of the Moon is Illuminated

Today's Extremes

State Highs State Lows

Community

WunderPhotos

Upload Photos

1,779,694 photos uploaded!

WunderBlogs® & News

Nearby

Air Quality

  Air Quality AQ Index Pollutant
Not available.

Snow Depth

Station Depth Elevation

Earthquake Activity

City Distance Mag. Time & Date
Minimum magnitude displayed is 2.5.

Coastal Water Temperatures

Place Temperature

Nearby Weather Stations